sensor_id;sensor_type;location;lat;lon;timestamp;temperature;humidity
17591;DHT22;8914;50.070;8.226;2022-11-13T02:36:53;12.70;99.90
17591;DHT22;8914;50.070;8.226;2022-11-13T02:39:23;7.00;99.90
17591;DHT22;8914;50.070;8.226;2022-11-13T02:41:52;6.90;99.90
17591;DHT22;8914;50.070;8.226;2022-11-13T02:44:22;6.90;99.90
17591;DHT22;8914;50.070;8.226;2022-11-13T02:46:51;6.80;99.90
17591;DHT22;8914;50.070;8.226;2022-11-13T02:49:21;6.80;99.90
17591;DHT22;8914;50.070;8.226;2022-11-13T02:51:53;6.80;99.90
17591;DHT22;8914;50.070;8.226;2022-11-13T02:54:23;6.80;99.90
17591;DHT22;8914;50.070;8.226;2022-11-13T02:56:52;6.80;99.90
17591;DHT22;8914;50.070;8.226;2022-11-13T02:59:22;6.80;99.90
17591;DHT22;8914;50.070;8.226;2022-11-13T03:01:51;6.80;99.90
17591;DHT22;8914;50.070;8.226;2022-11-13T03:04:21;6.70;99.90
17591;DHT22;8914;50.070;8.226;2022-11-13T03:09:21;6.60;99.90
17591;DHT22;8914;50.070;8.226;2022-11-13T03:11:51;6.70;99.90
17591;DHT22;8914;50.070;8.226;2022-11-13T03:14:21;6.60;99.90
17591;DHT22;8914;50.070;8.226;2022-11-13T03:16:50;6.60;99.90
17591;DHT22;8914;50.070;8.226;2022-11-13T03:19:20;6.60;99.90
17591;DHT22;8914;50.070;8.226;2022-11-13T03:21:51;6.60;99.90
17591;DHT22;8914;50.070;8.226;2022-11-13T03:24:23;6.80;99.90
17591;DHT22;8914;50.070;8.226;2022-11-13T03:26:53;6.80;99.90
17591;DHT22;8914;50.070;8.226;2022-11-13T03:29:23;6.60;99.90
17591;DHT22;8914;50.070;8.226;2022-11-13T03:31:53;6.60;99.90
17591;DHT22;8914;50.070;8.226;2022-11-13T03:34:22;6.70;99.90
17591;DHT22;8914;50.070;8.226;2022-11-13T03:36:52;6.60;99.90
17591;DHT22;8914;50.070;8.226;2022-11-13T03:39:24;6.60;99.90
17591;DHT22;8914;50.070;8.226;2022-11-13T03:41:54;6.60;99.90
17591;DHT22;8914;50.070;8.226;2022-11-13T03:44:24;6.60;99.90
17591;DHT22;8914;50.070;8.226;2022-11-13T03:46:53;6.50;99.90
17591;DHT22;8914;50.070;8.226;2022-11-13T03:49:23;6.60;99.90
17591;DHT22;8914;50.070;8.226;2022-11-13T03:51:53;6.50;99.90
17591;DHT22;8914;50.070;8.226;2022-11-13T03:54:25;6.60;99.90
17591;DHT22;8914;50.070;8.226;2022-11-13T03:56:54;6.50;99.90
17591;DHT22;8914;50.070;8.226;2022-11-13T03:59:24;6.50;99.90
17591;DHT22;8914;50.070;8.226;2022-11-13T04:01:54;6.50;99.90
17591;DHT22;8914;50.070;8.226;2022-11-13T04:04:23;6.50;99.90
17591;DHT22;8914;50.070;8.226;2022-11-13T04:06:53;6.50;99.90
17591;DHT22;8914;50.070;8.226;2022-11-13T04:09:25;6.50;99.90
17591;DHT22;8914;50.070;8.226;2022-11-13T04:11:55;6.50;99.90
17591;DHT22;8914;50.070;8.226;2022-11-13T04:14:24;6.50;99.90
17591;DHT22;8914;50.070;8.226;2022-11-13T04:16:54;6.40;99.90
17591;DHT22;8914;50.070;8.226;2022-11-13T04:19:24;7.70;99.90
17591;DHT22;8914;50.070;8.226;2022-11-13T04:21:54;6.80;99.90
17591;DHT22;8914;50.070;8.226;2022-11-13T04:24:26;6.40;99.90
17591;DHT22;8914;50.070;8.226;2022-11-13T04:26:56;6.40;99.90
17591;DHT22;8914;50.070;8.226;2022-11-13T04:29:26;6.80;99.90
17591;DHT22;8914;50.070;8.226;2022-11-13T04:31:56;6.40;99.90
17591;DHT22;8914;50.070;8.226;2022-11-13T04:34:26;6.40;99.90
17591;DHT22;8914;50.070;8.226;2022-11-13T04:36:56;6.40;99.90
17591;DHT22;8914;50.070;8.226;2022-11-13T04:39:30;6.40;99.90
17591;DHT22;8914;50.070;8.226;2022-11-13T04:42:00;6.40;99.90
17591;DHT22;8914;50.070;8.226;2022-11-13T04:44:41;6.40;99.90
17591;DHT22;8914;50.070;8.226;2022-11-13T04:47:11;6.40;99.90
17591;DHT22;8914;50.070;8.226;2022-11-13T04:49:41;6.30;99.90
17591;DHT22;8914;50.070;8.226;2022-11-13T04:52:11;6.30;99.90
17591;DHT22;8914;50.070;8.226;2022-11-13T04:54:44;6.40;99.90
17591;DHT22;8914;50.070;8.226;2022-11-13T04:57:14;6.30;99.90
17591;DHT22;8914;50.070;8.226;2022-11-13T04:59:44;6.30;99.90
17591;DHT22;8914;50.070;8.226;2022-11-13T05:02:14;6.30;99.90
17591;DHT22;8914;50.070;8.226;2022-11-13T05:04:51;6.30;99.90
17591;DHT22;8914;50.070;8.226;2022-11-13T05:07:27;6.20;99.90
17591;DHT22;8914;50.070;8.226;2022-11-13T05:10:00;6.20;99.90
17591;DHT22;8914;50.070;8.226;2022-11-13T05:12:30;6.20;99.90
17591;DHT22;8914;50.070;8.226;2022-11-13T05:14:59;6.40;99.90
17591;DHT22;8914;50.070;8.226;2022-11-13T05:17:30;6.20;99.90
17591;DHT22;8914;50.070;8.226;2022-11-13T05:19:59;6.10;99.90
17591;DHT22;8914;50.070;8.226;2022-11-13T05:22:29;6.60;99.90
17591;DHT22;8914;50.070;8.226;2022-11-13T05:25:01;6.10;99.90
17591;DHT22;8914;50.070;8.226;2022-11-13T05:27:31;6.10;99.90
17591;DHT22;8914;50.070;8.226;2022-11-13T05:30:01;6.10;99.90
17591;DHT22;8914;50.070;8.226;2022-11-13T05:32:31;6.10;99.90
17591;DHT22;8914;50.070;8.226;2022-11-13T05:35:00;6.10;99.90
17591;DHT22;8914;50.070;8.226;2022-11-13T05:37:30;6.70;99.90
17591;DHT22;8914;50.070;8.226;2022-11-13T05:40:02;6.10;99.90
17591;DHT22;8914;50.070;8.226;2022-11-13T05:42:32;6.10;99.90
17591;DHT22;8914;50.070;8.226;2022-11-13T05:45:03;6.10;99.90
17591;DHT22;8914;50.070;8.226;2022-11-13T05:47:33;6.10;99.90
17591;DHT22;8914;50.070;8.226;2022-11-13T05:50:03;6.10;99.90
17591;DHT22;8914;50.070;8.226;2022-11-13T05:52:33;6.10;99.90
17591;DHT22;8914;50.070;8.226;2022-11-13T05:55:07;6.10;99.90
17591;DHT22;8914;50.070;8.226;2022-11-13T05:57:37;6.10;99.90
17591;DHT22;8914;50.070;8.226;2022-11-13T06:00:07;6.10;99.90
17591;DHT22;8914;50.070;8.226;2022-11-13T06:02:38;6.10;99.90
17591;DHT22;8914;50.070;8.226;2022-11-13T06:05:09;6.10;99.90
17591;DHT22;8914;50.070;8.226;2022-11-13T06:07:39;6.10;99.90
17591;DHT22;8914;50.070;8.226;2022-11-13T06:10:12;6.20;99.90
17591;DHT22;8914;50.070;8.226;2022-11-13T06:12:41;6.10;99.90
17591;DHT22;8914;50.070;8.226;2022-11-13T06:15:16;6.00;99.90
17591;DHT22;8914;50.070;8.226;2022-11-13T06:17:45;6.00;99.90
17591;DHT22;8914;50.070;8.226;2022-11-13T06:20:15;6.00;99.90
17591;DHT22;8914;50.070;8.226;2022-11-13T06:22:45;6.00;99.90
17591;DHT22;8914;50.070;8.226;2022-11-13T06:25:17;6.00;99.90
17591;DHT22;8914;50.070;8.226;2022-11-13T06:27:47;6.00;99.90
17591;DHT22;8914;50.070;8.226;2022-11-13T06:30:17;6.00;99.90
17591;DHT22;8914;50.070;8.226;2022-11-13T06:32:50;6.00;99.90
17591;DHT22;8914;50.070;8.226;2022-11-13T06:35:21;6.00;99.90
17591;DHT22;8914;50.070;8.226;2022-11-13T06:37:50;7.10;99.90
17591;DHT22;8914;50.070;8.226;2022-11-13T06:40:25;6.10;99.90
17591;DHT22;8914;50.070;8.226;2022-11-13T06:42:55;6.00;99.90
17591;DHT22;8914;50.070;8.226;2022-11-13T06:45:24;6.00;99.90
17591;DHT22;8914;50.070;8.226;2022-11-13T06:47:55;6.00;99.90
17591;DHT22;8914;50.070;8.226;2022-11-13T06:50:25;6.20;99.90
17591;DHT22;8914;50.070;8.226;2022-11-13T06:52:54;6.00;99.90
17591;DHT22;8914;50.070;8.226;2022-11-13T06:55:27;6.10;99.90
17591;DHT22;8914;50.070;8.226;2022-11-13T06:57:57;6.00;99.90
17591;DHT22;8914;50.070;8.226;2022-11-13T07:00:27;6.00;99.90
17591;DHT22;8914;50.070;8.226;2022-11-13T07:03:03;6.10;99.90
17591;DHT22;8914;50.070;8.226;2022-11-13T07:05:34;7.30;99.90
17591;DHT22;8914;50.070;8.226;2022-11-13T07:08:04;6.10;99.90
17591;DHT22;8914;50.070;8.226;2022-11-13T07:10:36;6.50;99.90
17591;DHT22;8914;50.070;8.226;2022-11-13T07:13:06;6.30;99.90
17591;DHT22;8914;50.070;8.226;2022-11-13T07:15:37;6.50;99.90
17591;DHT22;8914;50.070;8.226;2022-11-13T07:18:07;5.90;99.90
17591;DHT22;8914;50.070;8.226;2022-11-13T07:20:36;6.30;99.90
17591;DHT22;8914;50.070;8.226;2022-11-13T07:23:06;6.00;99.90
17591;DHT22;8914;50.070;8.226;2022-11-13T07:25:38;6.00;99.90
17591;DHT22;8914;50.070;8.226;2022-11-13T07:28:08;6.00;99.90
17591;DHT22;8914;50.070;8.226;2022-11-13T07:30:38;6.00;99.90
17591;DHT22;8914;50.070;8.226;2022-11-13T07:33:08;6.00;99.90
17591;DHT22;8914;50.070;8.226;2022-11-13T07:35:37;6.70;99.90
17591;DHT22;8914;50.070;8.226;2022-11-13T07:38:07;5.90;99.90
17591;DHT22;8914;50.070;8.226;2022-11-13T07:40:39;5.90;99.90
17591;DHT22;8914;50.070;8.226;2022-11-13T07:43:09;6.40;99.90
17591;DHT22;8914;50.070;8.226;2022-11-13T07:45:39;6.00;99.90
17591;DHT22;8914;50.070;8.226;2022-11-13T07:48:09;5.90;99.90
17591;DHT22;8914;50.070;8.226;2022-11-13T07:50:39;6.00;99.90
17591;DHT22;8914;50.070;8.226;2022-11-13T07:53:08;6.50;99.90
17591;DHT22;8914;50.070;8.226;2022-11-13T07:55:41;5.90;99.90
17591;DHT22;8914;50.070;8.226;2022-11-13T07:58:11;5.90;99.90
17591;DHT22;8914;50.070;8.226;2022-11-13T08:00:40;6.10;99.90
17591;DHT22;8914;50.070;8.226;2022-11-13T08:03:11;6.00;99.90
17591;DHT22;8914;50.070;8.226;2022-11-13T08:05:42;6.00;99.90
17591;DHT22;8914;50.070;8.226;2022-11-13T08:08:12;6.00;99.90
17591;DHT22;8914;50.070;8.226;2022-11-13T08:10:44;6.00;99.90
17591;DHT22;8914;50.070;8.226;2022-11-13T08:13:14;6.10;99.90
17591;DHT22;8914;50.070;8.226;2022-11-13T08:15:44;6.10;99.90
17591;DHT22;8914;50.070;8.226;2022-11-13T08:18:13;6.10;99.90
17591;DHT22;8914;50.070;8.226;2022-11-13T08:20:43;6.10;99.90
17591;DHT22;8914;50.070;8.226;2022-11-13T08:23:13;6.20;99.90
17591;DHT22;8914;50.070;8.226;2022-11-13T08:25:45;6.30;99.90
17591;DHT22;8914;50.070;8.226;2022-11-13T08:28:15;6.40;99.90
17591;DHT22;8914;50.070;8.226;2022-11-13T08:30:44;6.50;99.90
17591;DHT22;8914;50.070;8.226;2022-11-13T08:33:14;6.50;99.90
17591;DHT22;8914;50.070;8.226;2022-11-13T08:35:50;6.50;99.90
17591;DHT22;8914;50.070;8.226;2022-11-13T08:38:20;6.50;99.90
17591;DHT22;8914;50.070;8.226;2022-11-13T08:40:54;6.50;99.90
17591;DHT22;8914;50.070;8.226;2022-11-13T08:43:27;6.60;99.90
17591;DHT22;8914;50.070;8.226;2022-11-13T08:45:57;6.60;99.90
17591;DHT22;8914;50.070;8.226;2022-11-13T08:48:26;6.60;99.90
17591;DHT22;8914;50.070;8.226;2022-11-13T08:50:57;6.60;99.90
17591;DHT22;8914;50.070;8.226;2022-11-13T08:53:26;6.60;99.90
17591;DHT22;8914;50.070;8.226;2022-11-13T08:56:01;6.70;99.90
17591;DHT22;8914;50.070;8.226;2022-11-13T08:58:31;6.70;99.90
17591;DHT22;8914;50.070;8.226;2022-11-13T09:01:01;6.70;99.90
17591;DHT22;8914;50.070;8.226;2022-11-13T09:03:30;6.70;99.90
17591;DHT22;8914;50.070;8.226;2022-11-13T09:06:03;6.80;99.90
17591;DHT22;8914;50.070;8.226;2022-11-13T09:08:33;6.80;99.90
17591;DHT22;8914;50.070;8.226;2022-11-13T09:11:05;6.90;99.90
17591;DHT22;8914;50.070;8.226;2022-11-13T09:13:38;6.90;99.90
17591;DHT22;8914;50.070;8.226;2022-11-13T09:16:23;7.00;99.90
17591;DHT22;8914;50.070;8.226;2022-11-13T09:18:53;7.20;99.90
17591;DHT22;8914;50.070;8.226;2022-11-13T09:21:23;7.10;99.90
17591;DHT22;8914;50.070;8.226;2022-11-13T09:23:52;7.20;99.90
17591;DHT22;8914;50.070;8.226;2022-11-13T09:26:26;7.20;99.90
17591;DHT22;8914;50.070;8.226;2022-11-13T09:28:56;7.30;99.90
17591;DHT22;8914;50.070;8.226;2022-11-13T09:31:26;7.30;99.90
17591;DHT22;8914;50.070;8.226;2022-11-13T09:33:56;7.30;99.90
17591;DHT22;8914;50.070;8.226;2022-11-13T09:36:30;7.40;99.90
17591;DHT22;8914;50.070;8.226;2022-11-13T09:39:00;7.40;99.90
17591;DHT22;8914;50.070;8.226;2022-11-13T09:41:33;7.50;99.90
17591;DHT22;8914;50.070;8.226;2022-11-13T09:44:05;7.50;99.90
17591;DHT22;8914;50.070;8.226;2022-11-13T09:46:36;7.60;99.90
17591;DHT22;8914;50.070;8.226;2022-11-13T09:49:12;7.60;99.90
17591;DHT22;8914;50.070;8.226;2022-11-13T09:51:43;7.70;99.90
17591;DHT22;8914;50.070;8.226;2022-11-13T09:54:15;7.80;99.90
17591;DHT22;8914;50.070;8.226;2022-11-13T09:56:50;7.80;99.90
17591;DHT22;8914;50.070;8.226;2022-11-13T09:59:23;7.80;99.90
17591;DHT22;8914;50.070;8.226;2022-11-13T10:01:57;7.80;99.90
17591;DHT22;8914;50.070;8.226;2022-11-13T10:04:32;7.80;99.90
17591;DHT22;8914;50.070;8.226;2022-11-13T10:07:07;7.70;99.90
17591;DHT22;8914;50.070;8.226;2022-11-13T10:09:43;7.80;99.90
17591;DHT22;8914;50.070;8.226;2022-11-13T10:12:17;7.80;99.90
17591;DHT22;8914;50.070;8.226;2022-11-13T10:14:47;7.90;99.90
17591;DHT22;8914;50.070;8.226;2022-11-13T10:17:20;8.00;99.90
17591;DHT22;8914;50.070;8.226;2022-11-13T10:19:52;8.10;99.90
17591;DHT22;8914;50.070;8.226;2022-11-13T10:22:25;8.20;99.90
17591;DHT22;8914;50.070;8.226;2022-11-13T10:25:02;8.30;99.90
17591;DHT22;8914;50.070;8.226;2022-11-13T10:27:35;8.40;99.90
17591;DHT22;8914;50.070;8.226;2022-11-13T10:30:10;8.60;99.90
17591;DHT22;8914;50.070;8.226;2022-11-13T10:32:41;8.70;99.90
17591;DHT22;8914;50.070;8.226;2022-11-13T10:38:02;9.00;99.90
17591;DHT22;8914;50.070;8.226;2022-11-13T10:40:38;9.20;99.90
17591;DHT22;8914;50.070;8.226;2022-11-13T10:43:13;9.30;99.90
17591;DHT22;8914;50.070;8.226;2022-11-13T10:45:52;9.50;99.90
17591;DHT22;8914;50.070;8.226;2022-11-13T10:48:22;9.70;99.90
17591;DHT22;8914;50.070;8.226;2022-11-13T10:51:19;9.80;99.90
17591;DHT22;8914;50.070;8.226;2022-11-13T10:53:49;9.90;99.90
17591;DHT22;8914;50.070;8.226;2022-11-13T10:56:21;10.10;99.90
17591;DHT22;8914;50.070;8.226;2022-11-13T10:59:08;10.20;99.90
17591;DHT22;8914;50.070;8.226;2022-11-13T11:01:38;10.30;99.90
17591;DHT22;8914;50.070;8.226;2022-11-13T11:04:11;10.40;99.90
17591;DHT22;8914;50.070;8.226;2022-11-13T11:06:40;10.50;99.90
17591;DHT22;8914;50.070;8.226;2022-11-13T11:09:30;10.60;99.90
17591;DHT22;8914;50.070;8.226;2022-11-13T11:12:04;10.60;99.90
17591;DHT22;8914;50.070;8.226;2022-11-13T11:15:00;10.70;99.90
17591;DHT22;8914;50.070;8.226;2022-11-13T11:17:33;10.70;99.90
17591;DHT22;8914;50.070;8.226;2022-11-13T11:20:05;10.80;99.90
17591;DHT22;8914;50.070;8.226;2022-11-13T11:22:36;10.80;99.90
17591;DHT22;8914;50.070;8.226;2022-11-13T11:25:10;10.80;99.90
17591;DHT22;8914;50.070;8.226;2022-11-13T11:27:42;10.90;99.90
17591;DHT22;8914;50.070;8.226;2022-11-13T11:30:17;10.90;99.90
17591;DHT22;8914;50.070;8.226;2022-11-13T11:32:50;11.00;99.90
17591;DHT22;8914;50.070;8.226;2022-11-13T11:35:20;11.00;99.90
17591;DHT22;8914;50.070;8.226;2022-11-13T11:37:52;11.00;99.90
17591;DHT22;8914;50.070;8.226;2022-11-13T11:40:25;11.20;99.90
17591;DHT22;8914;50.070;8.226;2022-11-13T11:42:59;11.20;99.90
17591;DHT22;8914;50.070;8.226;2022-11-13T11:45:33;11.20;99.90
17591;DHT22;8914;50.070;8.226;2022-11-13T11:48:05;11.30;99.90
17591;DHT22;8914;50.070;8.226;2022-11-13T11:50:38;11.40;99.90
17591;DHT22;8914;50.070;8.226;2022-11-13T11:53:12;11.50;99.90
17591;DHT22;8914;50.070;8.226;2022-11-13T11:55:46;11.50;99.90
17591;DHT22;8914;50.070;8.226;2022-11-13T11:58:23;11.60;99.90
17591;DHT22;8914;50.070;8.226;2022-11-13T12:00:58;11.70;99.90
17591;DHT22;8914;50.070;8.226;2022-11-13T12:03:42;11.80;99.90
17591;DHT22;8914;50.070;8.226;2022-11-13T12:06:19;11.80;99.90
17591;DHT22;8914;50.070;8.226;2022-11-13T12:08:53;11.80;99.90
17591;DHT22;8914;50.070;8.226;2022-11-13T12:11:26;11.70;99.90
17591;DHT22;8914;50.070;8.226;2022-11-13T12:14:01;11.70;99.90
17591;DHT22;8914;50.070;8.226;2022-11-13T12:16:38;11.60;99.90
17591;DHT22;8914;50.070;8.226;2022-11-13T12:19:10;11.60;99.90
17591;DHT22;8914;50.070;8.226;2022-11-13T12:21:43;11.50;99.90
17591;DHT22;8914;50.070;8.226;2022-11-13T12:24:24;11.40;99.90
17591;DHT22;8914;50.070;8.226;2022-11-13T12:27:00;11.40;99.90
17591;DHT22;8914;50.070;8.226;2022-11-13T12:29:37;11.40;99.90
17591;DHT22;8914;50.070;8.226;2022-11-13T12:32:14;11.30;99.90
17591;DHT22;8914;50.070;8.226;2022-11-13T12:34:47;11.30;99.90
17591;DHT22;8914;50.070;8.226;2022-11-13T12:37:21;11.30;99.90
17591;DHT22;8914;50.070;8.226;2022-11-13T12:39:53;11.30;99.90
17591;DHT22;8914;50.070;8.226;2022-11-13T12:42:27;11.30;99.90
17591;DHT22;8914;50.070;8.226;2022-11-13T12:45:01;11.20;99.90
17591;DHT22;8914;50.070;8.226;2022-11-13T12:47:38;11.20;99.90
17591;DHT22;8914;50.070;8.226;2022-11-13T12:50:19;11.20;99.90
17591;DHT22;8914;50.070;8.226;2022-11-13T12:52:58;11.20;99.90
17591;DHT22;8914;50.070;8.226;2022-11-13T12:55:28;11.20;99.90
17591;DHT22;8914;50.070;8.226;2022-11-13T12:58:03;11.20;99.90
17591;DHT22;8914;50.070;8.226;2022-11-13T13:00:33;11.20;99.90
17591;DHT22;8914;50.070;8.226;2022-11-13T13:03:15;11.20;99.90
17591;DHT22;8914;50.070;8.226;2022-11-13T13:06:03;11.20;99.90
17591;DHT22;8914;50.070;8.226;2022-11-13T13:08:42;11.30;99.90
17591;DHT22;8914;50.070;8.226;2022-11-13T13:11:15;11.40;99.90
17591;DHT22;8914;50.070;8.226;2022-11-13T13:13:47;11.40;99.90
17591;DHT22;8914;50.070;8.226;2022-11-13T13:16:19;11.50;99.90
17591;DHT22;8914;50.070;8.226;2022-11-13T13:19:04;11.50;99.90
17591;DHT22;8914;50.070;8.226;2022-11-13T13:21:40;11.60;99.90
17591;DHT22;8914;50.070;8.226;2022-11-13T13:24:24;11.60;99.90
17591;DHT22;8914;50.070;8.226;2022-11-13T13:26:55;11.60;99.90
17591;DHT22;8914;50.070;8.226;2022-11-13T13:29:25;11.70;99.90
17591;DHT22;8914;50.070;8.226;2022-11-13T13:31:58;11.70;99.90
17591;DHT22;8914;50.070;8.226;2022-11-13T13:34:42;11.80;99.90
17591;DHT22;8914;50.070;8.226;2022-11-13T13:37:24;11.80;99.90
17591;DHT22;8914;50.070;8.226;2022-11-13T13:39:58;11.80;99.90
17591;DHT22;8914;50.070;8.226;2022-11-13T13:42:36;11.80;99.90
17591;DHT22;8914;50.070;8.226;2022-11-13T13:45:21;11.80;99.90
17591;DHT22;8914;50.070;8.226;2022-11-13T13:47:54;11.80;99.90
17591;DHT22;8914;50.070;8.226;2022-11-13T13:50:28;11.90;99.90
17591;DHT22;8914;50.070;8.226;2022-11-13T13:52:58;11.90;99.90
17591;DHT22;8914;50.070;8.226;2022-11-13T13:55:30;11.90;99.90
17591;DHT22;8914;50.070;8.226;2022-11-13T13:58:00;11.90;99.90
17591;DHT22;8914;50.070;8.226;2022-11-13T14:00:31;12.00;99.90
17591;DHT22;8914;50.070;8.226;2022-11-13T14:03:19;12.00;99.90
17591;DHT22;8914;50.070;8.226;2022-11-13T14:05:53;12.00;99.90
17591;DHT22;8914;50.070;8.226;2022-11-13T14:08:29;12.10;99.90
17591;DHT22;8914;50.070;8.226;2022-11-13T14:11:01;12.10;99.90
17591;DHT22;8914;50.070;8.226;2022-11-13T14:13:31;12.10;99.90
17591;DHT22;8914;50.070;8.226;2022-11-13T14:16:04;12.10;99.90
17591;DHT22;8914;50.070;8.226;2022-11-13T14:18:34;12.10;99.90
17591;DHT22;8914;50.070;8.226;2022-11-13T14:21:08;12.00;99.90
17591;DHT22;8914;50.070;8.226;2022-11-13T14:23:42;12.00;99.90
17591;DHT22;8914;50.070;8.226;2022-11-13T14:26:12;12.00;99.90
17591;DHT22;8914;50.070;8.226;2022-11-13T14:28:43;12.00;99.90
17591;DHT22;8914;50.070;8.226;2022-11-13T14:31:19;12.00;99.90
17591;DHT22;8914;50.070;8.226;2022-11-13T14:33:55;12.00;99.90
17591;DHT22;8914;50.070;8.226;2022-11-13T14:36:28;12.00;99.90
17591;DHT22;8914;50.070;8.226;2022-11-13T14:38:58;12.00;99.90
17591;DHT22;8914;50.070;8.226;2022-11-13T14:41:30;12.10;99.90
17591;DHT22;8914;50.070;8.226;2022-11-13T14:44:01;12.00;99.90
17591;DHT22;8914;50.070;8.226;2022-11-13T14:46:33;12.00;99.90
17591;DHT22;8914;50.070;8.226;2022-11-13T14:49:03;12.00;99.90
17591;DHT22;8914;50.070;8.226;2022-11-13T14:51:35;12.00;99.90
17591;DHT22;8914;50.070;8.226;2022-11-13T14:54:05;12.00;99.90
17591;DHT22;8914;50.070;8.226;2022-11-13T14:56:36;11.90;99.90
17591;DHT22;8914;50.070;8.226;2022-11-13T14:59:07;11.90;99.90
17591;DHT22;8914;50.070;8.226;2022-11-13T15:01:52;11.90;99.90
17591;DHT22;8914;50.070;8.226;2022-11-13T15:04:21;11.90;99.90
17591;DHT22;8914;50.070;8.226;2022-11-13T15:06:55;11.80;99.90
17591;DHT22;8914;50.070;8.226;2022-11-13T15:09:25;11.80;99.90
17591;DHT22;8914;50.070;8.226;2022-11-13T15:11:55;11.80;99.90
17591;DHT22;8914;50.070;8.226;2022-11-13T15:14:25;11.80;99.90
17591;DHT22;8914;50.070;8.226;2022-11-13T15:16:54;11.80;99.90
17591;DHT22;8914;50.070;8.226;2022-11-13T15:19:26;11.70;99.90
17591;DHT22;8914;50.070;8.226;2022-11-13T15:22:02;11.00;99.90
17591;DHT22;8914;50.070;8.226;2022-11-13T15:24:52;11.50;99.90
17591;DHT22;8914;50.070;8.226;2022-11-13T15:27:21;11.50;99.90
17591;DHT22;8914;50.070;8.226;2022-11-13T15:29:51;11.40;99.90
17591;DHT22;8914;50.070;8.226;2022-11-13T15:32:21;11.40;99.90
17591;DHT22;8914;50.070;8.226;2022-11-13T15:34:54;11.30;99.90
17591;DHT22;8914;50.070;8.226;2022-11-13T15:37:26;11.20;99.90
17591;DHT22;8914;50.070;8.226;2022-11-13T15:39:56;11.20;99.90
17591;DHT22;8914;50.070;8.226;2022-11-13T15:42:27;11.20;99.90
17591;DHT22;8914;50.070;8.226;2022-11-13T15:44:57;11.10;99.90
17591;DHT22;8914;50.070;8.226;2022-11-13T15:47:28;11.10;99.90
17591;DHT22;8914;50.070;8.226;2022-11-13T15:49:58;11.10;99.90
17591;DHT22;8914;50.070;8.226;2022-11-13T15:52:43;11.00;99.90
17591;DHT22;8914;50.070;8.226;2022-11-13T15:55:17;11.00;99.90
17591;DHT22;8914;50.070;8.226;2022-11-13T15:57:47;11.00;99.90
17591;DHT22;8914;50.070;8.226;2022-11-13T16:00:18;10.90;99.90
17591;DHT22;8914;50.070;8.226;2022-11-13T16:02:51;10.90;99.90
17591;DHT22;8914;50.070;8.226;2022-11-13T16:05:22;10.80;99.90
17591;DHT22;8914;50.070;8.226;2022-11-13T16:07:54;10.80;99.90
17591;DHT22;8914;50.070;8.226;2022-11-13T16:10:24;10.70;99.90
17591;DHT22;8914;50.070;8.226;2022-11-13T16:12:54;10.70;99.90
17591;DHT22;8914;50.070;8.226;2022-11-13T16:15:23;10.60;99.90
17591;DHT22;8914;50.070;8.226;2022-11-13T16:17:53;10.60;99.90
17591;DHT22;8914;50.070;8.226;2022-11-13T16:20:23;10.60;99.90
17591;DHT22;8914;50.070;8.226;2022-11-13T16:22:56;10.50;99.90
17591;DHT22;8914;50.070;8.226;2022-11-13T16:25:25;10.40;99.90
17591;DHT22;8914;50.070;8.226;2022-11-13T16:27:55;10.30;99.90
17591;DHT22;8914;50.070;8.226;2022-11-13T16:30:25;10.20;99.90
17591;DHT22;8914;50.070;8.226;2022-11-13T16:32:57;10.20;99.90
17591;DHT22;8914;50.070;8.226;2022-11-13T16:35:31;10.10;99.90
17591;DHT22;8914;50.070;8.226;2022-11-13T16:38:04;10.00;99.90
17591;DHT22;8914;50.070;8.226;2022-11-13T16:40:38;10.00;99.90
17591;DHT22;8914;50.070;8.226;2022-11-13T16:43:09;10.00;99.90
17591;DHT22;8914;50.070;8.226;2022-11-13T16:45:38;9.90;99.90
17591;DHT22;8914;50.070;8.226;2022-11-13T16:48:10;9.90;99.90
17591;DHT22;8914;50.070;8.226;2022-11-13T16:50:41;9.80;99.90
17591;DHT22;8914;50.070;8.226;2022-11-13T16:53:13;9.80;99.90
17591;DHT22;8914;50.070;8.226;2022-11-13T16:55:43;9.70;99.90
17591;DHT22;8914;50.070;8.226;2022-11-13T16:58:12;9.70;99.90
17591;DHT22;8914;50.070;8.226;2022-11-13T17:00:42;9.60;99.90
17591;DHT22;8914;50.070;8.226;2022-11-13T17:03:12;9.60;99.90
17591;DHT22;8914;50.070;8.226;2022-11-13T17:05:41;9.60;99.90
17591;DHT22;8914;50.070;8.226;2022-11-13T17:08:13;9.50;99.90
17591;DHT22;8914;50.070;8.226;2022-11-13T17:10:43;9.50;99.90
17591;DHT22;8914;50.070;8.226;2022-11-13T17:13:13;9.50;99.90
17591;DHT22;8914;50.070;8.226;2022-11-13T17:15:42;9.50;99.90
17591;DHT22;8914;50.070;8.226;2022-11-13T17:18:12;9.50;99.90
17591;DHT22;8914;50.070;8.226;2022-11-13T17:20:42;9.50;99.90
17591;DHT22;8914;50.070;8.226;2022-11-13T17:23:15;9.40;99.90
17591;DHT22;8914;50.070;8.226;2022-11-13T17:25:44;9.40;99.90
17591;DHT22;8914;50.070;8.226;2022-11-13T17:28:14;9.30;99.90
17591;DHT22;8914;50.070;8.226;2022-11-13T17:30:44;9.30;99.90
17591;DHT22;8914;50.070;8.226;2022-11-13T17:33:14;9.20;99.90
17591;DHT22;8914;50.070;8.226;2022-11-13T17:35:43;9.30;99.90
17591;DHT22;8914;50.070;8.226;2022-11-13T17:38:15;9.20;99.90
17591;DHT22;8914;50.070;8.226;2022-11-13T17:40:45;9.20;99.90
17591;DHT22;8914;50.070;8.226;2022-11-13T17:43:15;9.10;99.90
17591;DHT22;8914;50.070;8.226;2022-11-13T17:45:47;9.10;99.90
17591;DHT22;8914;50.070;8.226;2022-11-13T17:48:16;9.10;99.90
17591;DHT22;8914;50.070;8.226;2022-11-13T17:50:54;9.10;99.90
17591;DHT22;8914;50.070;8.226;2022-11-13T17:53:26;9.10;99.90
17591;DHT22;8914;50.070;8.226;2022-11-13T17:55:57;9.00;99.90
17591;DHT22;8914;50.070;8.226;2022-11-13T17:58:27;9.00;99.90
17591;DHT22;8914;50.070;8.226;2022-11-13T18:01:01;9.00;99.90
17591;DHT22;8914;50.070;8.226;2022-11-13T18:03:31;9.00;99.90
17591;DHT22;8914;50.070;8.226;2022-11-13T18:06:04;8.90;99.90
17591;DHT22;8914;50.070;8.226;2022-11-13T18:08:39;8.90;99.90
17591;DHT22;8914;50.070;8.226;2022-11-13T18:11:09;8.90;99.90
17591;DHT22;8914;50.070;8.226;2022-11-13T18:13:41;8.90;99.90
17591;DHT22;8914;50.070;8.226;2022-11-13T18:16:12;8.90;99.90
17591;DHT22;8914;50.070;8.226;2022-11-13T18:18:42;8.90;99.90
17591;DHT22;8914;50.070;8.226;2022-11-13T18:21:12;8.90;99.90
17591;DHT22;8914;50.070;8.226;2022-11-13T18:23:53;8.80;99.90
17591;DHT22;8914;50.070;8.226;2022-11-13T18:26:23;8.80;99.90
17591;DHT22;8914;50.070;8.226;2022-11-13T18:28:53;8.80;99.90
17591;DHT22;8914;50.070;8.226;2022-11-13T18:31:23;8.80;99.90
17591;DHT22;8914;50.070;8.226;2022-11-13T18:33:53;8.80;99.90
17591;DHT22;8914;50.070;8.226;2022-11-13T18:36:23;8.80;99.90
17591;DHT22;8914;50.070;8.226;2022-11-13T18:38:55;8.80;99.90
17591;DHT22;8914;50.070;8.226;2022-11-13T18:41:24;8.80;99.90
17591;DHT22;8914;50.070;8.226;2022-11-13T18:43:54;8.80;99.90
17591;DHT22;8914;50.070;8.226;2022-11-13T18:46:23;8.80;99.90
17591;DHT22;8914;50.070;8.226;2022-11-13T18:48:53;8.70;99.90
17591;DHT22;8914;50.070;8.226;2022-11-13T18:51:25;8.70;99.90
17591;DHT22;8914;50.070;8.226;2022-11-13T18:53:58;8.70;99.90
17591;DHT22;8914;50.070;8.226;2022-11-13T18:56:35;8.70;99.90
17591;DHT22;8914;50.070;8.226;2022-11-13T18:59:05;8.60;99.90
17591;DHT22;8914;50.070;8.226;2022-11-13T19:01:35;8.60;99.90
17591;DHT22;8914;50.070;8.226;2022-11-13T19:04:06;8.60;99.90
17591;DHT22;8914;50.070;8.226;2022-11-13T19:06:53;8.60;99.90
17591;DHT22;8914;50.070;8.226;2022-11-13T19:09:25;8.50;99.90